createdAt,value
2019-05-23T00:00:22.039Z,75.27
2019-05-23T00:01:22.007Z,74.79
2019-05-23T00:02:22.005Z,75.20
2019-05-23T00:03:22.002Z,74.99
2019-05-23T00:04:22.001Z,75.40
2019-05-23T00:05:21.973Z,75.20
2019-05-23T00:06:21.967Z,74.90
2019-05-23T00:07:21.955Z,74.58
2019-05-23T00:08:21.961Z,74.79
2019-05-23T00:09:21.928Z,74.79
2019-05-23T00:10:21.925Z,75.20
2019-05-23T00:11:21.918Z,74.90
2019-05-23T00:12:21.917Z,74.79
2019-05-23T00:13:21.893Z,74.79
2019-05-23T00:14:21.872Z,74.28
2019-05-23T00:15:21.855Z,74.79
2019-05-23T00:16:21.845Z,75.20
2019-05-23T00:17:21.831Z,74.79
2019-05-23T00:18:21.855Z,74.69
2019-05-23T00:19:21.820Z,74.83
2019-05-23T00:20:21.817Z,75.03
2019-05-23T00:21:21.788Z,74.73
2019-05-23T00:22:21.791Z,74.93
2019-05-23T00:23:21.777Z,76.05
2019-05-23T00:24:21.761Z,75.13
2019-05-23T00:25:21.758Z,75.34
2019-05-23T00:26:21.750Z,75.20
2019-05-23T00:27:21.726Z,75.34
2019-05-23T00:28:21.721Z,74.83
2019-05-23T00:29:21.712Z,75.34
2019-05-23T00:30:21.703Z,74.83
2019-05-23T00:31:21.695Z,75.13
2019-05-23T00:32:21.675Z,74.69
2019-05-23T00:33:21.654Z,74.93
2019-05-23T00:34:21.651Z,74.73
2019-05-23T00:35:21.637Z,75.23
2019-05-23T00:36:21.626Z,76.56
2019-05-23T00:37:21.641Z,75.64
2019-05-23T00:38:21.602Z,75.34
2019-05-23T00:39:21.594Z,75.23
2019-05-23T00:40:21.584Z,75.03
2019-05-23T00:41:21.575Z,75.20
2019-05-23T00:42:21.580Z,74.79
2019-05-23T00:43:21.557Z,74.18
2019-05-23T00:44:21.536Z,74.49
2019-05-23T00:45:21.523Z,74.49
2019-05-23T00:46:21.519Z,74.58
2019-05-23T00:47:21.514Z,74.28
2019-05-23T00:48:21.503Z,74.28
2019-05-23T00:49:21.479Z,74.38
2019-05-23T00:50:21.463Z,74.90
2019-05-23T00:51:21.458Z,75.03
2019-05-23T00:52:21.447Z,74.83
2019-05-23T00:53:21.434Z,74.83
2019-05-23T00:54:21.446Z,75.54
2019-05-23T00:55:21.410Z,74.79
2019-05-23T00:56:21.404Z,74.73
2019-05-23T00:57:21.391Z,75.03
2019-05-23T00:58:21.387Z,74.93
2019-05-23T00:59:27.274Z,75.23
2019-05-23T01:00:22.349Z,74.93
2019-05-23T01:01:21.341Z,75.54
2019-05-23T01:02:21.337Z,75.10
2019-05-23T01:03:21.323Z,74.90
2019-05-23T01:04:21.317Z,75.13
2019-05-23T01:05:21.319Z,75.03
2019-05-23T01:06:21.291Z,74.83
2019-05-23T01:07:21.277Z,75.03
2019-05-23T01:08:21.292Z,75.13
2019-05-23T01:09:21.262Z,76.39
2019-05-23T01:10:21.241Z,76.29
2019-05-23T01:11:21.244Z,76.19
2019-05-23T01:12:21.229Z,76.39
2019-05-23T01:13:21.210Z,76.25
2019-05-23T01:14:21.211Z,76.50
2019-05-23T01:15:21.192Z,76.29
2019-05-23T01:16:21.201Z,76.39
2019-05-23T01:17:21.172Z,76.09
2019-05-23T01:18:21.147Z,76.29
2019-05-23T01:19:21.141Z,76.39
2019-05-23T01:20:21.139Z,76.50
2019-05-23T01:21:21.122Z,76.50
2019-05-23T01:22:21.119Z,76.59
2019-05-23T01:23:21.105Z,76.25
2019-05-23T01:24:21.081Z,76.05
2019-05-23T01:25:21.069Z,76.25
2019-05-23T01:26:21.065Z,76.05
2019-05-23T01:27:21.053Z,76.29
2019-05-23T01:28:21.232Z,76.80
2019-05-23T01:29:21.031Z,76.50
2019-05-23T01:30:21.017Z,76.09
2019-05-23T01:31:21.005Z,76.15
2019-05-23T01:32:21.004Z,76.05
2019-05-23T01:33:20.999Z,76.50
2019-05-23T01:34:20.991Z,75.85
2019-05-23T01:35:20.966Z,76.70
2019-05-23T01:36:20.953Z,76.39
2019-05-23T01:37:20.948Z,76.09
2019-05-23T01:38:20.943Z,76.50
2019-05-23T01:39:21.088Z,76.09
2019-05-23T01:40:20.959Z,76.35
2019-05-23T01:41:20.903Z,76.15
2019-05-23T01:42:20.881Z,76.09
2019-05-23T01:43:20.885Z,75.13
2019-05-23T01:44:20.872Z,75.37
2019-05-23T01:45:20.849Z,76.09
2019-05-23T01:46:20.849Z,76.29
2019-05-23T01:47:20.837Z,76.39
2019-05-23T01:48:20.822Z,76.19
2019-05-23T01:49:20.813Z,75.98
2019-05-23T01:50:20.804Z,76.09
2019-05-23T01:51:20.911Z,76.19
2019-05-23T01:52:20.780Z,75.98
2019-05-23T01:53:20.761Z,76.09
2019-05-23T01:54:20.813Z,76.19
2019-05-23T01:55:20.743Z,76.53
2019-05-23T01:56:20.737Z,76.73
2019-05-23T01:57:20.719Z,76.97
2019-05-23T01:58:20.707Z,76.63
2019-05-23T01:59:20.695Z,76.67
2019-05-23T02:00:20.686Z,76.73
2019-05-23T02:01:20.670Z,76.73
2019-05-23T02:02:20.657Z,76.73
2019-05-23T02:03:20.652Z,76.73
2019-05-23T02:04:20.639Z,76.73
2019-05-23T02:05:20.629Z,76.73
2019-05-23T02:06:20.625Z,77.45
2019-05-23T02:07:20.635Z,77.34
2019-05-23T02:08:20.589Z,77.69
2019-05-23T02:09:20.599Z,77.69
2019-05-23T02:10:20.573Z,77.96
2019-05-23T02:11:27.715Z,77.59
2019-05-23T02:13:13.990Z,77.08
2019-05-23T02:14:14.072Z,77.38
2019-05-23T02:15:13.961Z,77.28
2019-05-23T02:16:13.946Z,77.08
2019-05-23T02:17:13.942Z,77.48
2019-05-23T02:18:13.920Z,78.20
2019-05-23T02:19:14.022Z,77.96
2019-05-23T02:20:13.903Z,77.38
2019-05-23T02:21:13.891Z,77.04
2019-05-23T02:22:13.880Z,77.14
2019-05-23T02:23:13.872Z,77.04
2019-05-23T02:24:13.896Z,76.93
2019-05-23T02:25:13.901Z,76.43
2019-05-23T02:26:13.834Z,77.25
2019-05-23T02:27:13.816Z,76.84
2019-05-23T02:28:13.807Z,76.22
2019-05-23T02:29:13.797Z,76.43
2019-05-23T02:30:32.237Z,76.73
2019-05-23T02:31:14.770Z,76.63
2019-05-23T02:32:13.765Z,77.38
2019-05-23T02:33:13.761Z,77.28
2019-05-23T02:34:13.751Z,78.20
2019-05-23T02:35:13.731Z,77.93
2019-05-23T02:36:13.717Z,77.93
2019-05-23T02:37:13.709Z,78.13
2019-05-23T02:38:13.698Z,78.03
2019-05-23T02:39:13.687Z,78.61
2019-05-23T02:40:13.670Z,78.03
2019-05-23T02:41:13.667Z,78.75
2019-05-23T02:42:13.653Z,78.03
2019-05-23T02:43:13.639Z,78.09
2019-05-23T02:44:13.632Z,77.89
2019-05-23T02:45:13.617Z,77.89
2019-05-23T02:46:13.611Z,78.09
2019-05-23T02:47:13.613Z,77.18
2019-05-23T02:48:13.585Z,77.83
2019-05-23T02:49:13.574Z,77.93
2019-05-23T02:50:13.569Z,77.83
2019-05-23T02:51:13.571Z,77.93
2019-05-23T02:52:13.544Z,78.44
2019-05-23T02:53:13.539Z,78.54
2019-05-23T02:54:13.514Z,78.44
2019-05-23T02:55:13.514Z,77.72
2019-05-23T02:56:13.519Z,78.44
2019-05-23T02:57:13.490Z,78.13
2019-05-23T02:58:13.468Z,78.54
2019-05-23T02:59:13.458Z,78.03
2019-05-23T03:00:13.448Z,77.83
2019-05-23T03:01:13.458Z,77.93
2019-05-23T03:02:13.427Z,77.93
2019-05-23T03:03:13.416Z,78.44
2019-05-23T03:04:13.476Z,78.23
2019-05-23T03:05:13.394Z,77.72
2019-05-23T03:06:13.375Z,78.44
2019-05-23T03:07:13.378Z,77.93
2019-05-23T03:08:13.361Z,78.23
2019-05-23T03:09:13.347Z,78.54
2019-05-23T03:10:13.340Z,77.93
2019-05-23T03:11:13.323Z,78.34
2019-05-23T03:12:13.314Z,77.89
2019-05-23T03:13:13.302Z,77.89
2019-05-23T03:14:13.298Z,77.89
2019-05-23T03:15:13.276Z,77.48
2019-05-23T03:16:13.283Z,77.62
2019-05-23T03:17:13.257Z,78.34
2019-05-23T03:18:13.246Z,77.93
2019-05-23T03:19:13.240Z,78.03
2019-05-23T03:20:13.221Z,78.13
2019-05-23T03:21:13.205Z,78.75
2019-05-23T03:22:13.195Z,78.48
2019-05-23T03:23:13.211Z,79.25
2019-05-23T03:24:13.183Z,78.54
2019-05-23T03:25:13.175Z,78.23
2019-05-23T03:26:13.159Z,78.54
2019-05-23T03:27:13.140Z,78.68
2019-05-23T03:28:13.233Z,78.58
2019-05-23T03:29:13.118Z,78.95
2019-05-23T03:30:13.135Z,78.85
2019-05-23T03:31:28.754Z,78.23
2019-05-23T03:32:14.099Z,77.83
2019-05-23T03:33:13.111Z,78.13
2019-05-23T03:34:13.063Z,77.72
2019-05-23T03:35:13.115Z,77.83
2019-05-23T03:36:13.059Z,78.17
2019-05-23T03:37:13.030Z,77.86
2019-05-23T03:38:13.014Z,78.68
2019-05-23T03:39:12.998Z,78.68
2019-05-23T03:40:12.994Z,78.78
2019-05-23T03:41:12.989Z,78.58
2019-05-23T03:42:12.975Z,78.68
2019-05-23T03:43:12.962Z,79.09
2019-05-23T03:44:12.956Z,78.68
2019-05-23T03:45:12.937Z,78.48
2019-05-23T03:46:12.933Z,78.72
2019-05-23T03:47:12.917Z,78.07
2019-05-23T03:48:12.900Z,78.99
2019-05-23T03:49:12.893Z,78.48
2019-05-23T03:50:12.878Z,78.58
2019-05-23T03:51:12.910Z,78.78
2019-05-23T03:52:12.862Z,79.09
2019-05-23T03:53:12.863Z,78.78
2019-05-23T03:54:12.860Z,78.52
2019-05-23T03:55:12.910Z,78.20
2019-05-23T03:56:12.832Z,78.72
2019-05-23T03:57:12.812Z,78.82
2019-05-23T03:58:12.809Z,79.13
2019-05-23T03:59:12.811Z,78.86
2019-05-23T04:00:12.774Z,79.37
2019-05-23T04:01:12.881Z,79.68
2019-05-23T04:02:12.745Z,79.78
2019-05-23T04:03:12.761Z,79.88
2019-05-23T04:04:12.762Z,80.08
2019-05-23T04:05:12.720Z,79.74
2019-05-23T04:06:12.713Z,79.68
2019-05-23T04:07:12.690Z,80.22
2019-05-23T04:08:12.679Z,80.43
2019-05-23T04:09:12.692Z,79.91
2019-05-23T04:10:12.747Z,79.91
2019-05-23T04:11:12.716Z,80.22
2019-05-23T04:12:12.647Z,80.39
2019-05-23T04:13:12.725Z,80.12
2019-05-23T04:14:12.613Z,80.22
2019-05-23T04:15:12.607Z,80.33
2019-05-23T04:16:12.622Z,80.02
2019-05-23T04:17:12.585Z,80.43
2019-05-23T04:18:12.568Z,80.12
2019-05-23T04:19:12.650Z,79.91
2019-05-23T04:20:12.566Z,80.08
2019-05-23T04:21:12.552Z,80.39
2019-05-23T04:22:12.522Z,80.49
2019-05-23T04:23:12.537Z,79.98
2019-05-23T04:24:12.504Z,79.57
2019-05-23T04:25:12.489Z,79.88
2019-05-23T04:26:12.492Z,79.53
2019-05-23T04:27:12.479Z,79.64
2019-05-23T04:28:12.514Z,79.06
2019-05-23T04:29:12.447Z,78.82
2019-05-23T04:30:12.453Z,79.13
2019-05-23T04:31:13.385Z,79.16
2019-05-23T04:32:12.421Z,79.88
2019-05-23T04:33:12.410Z,80.08
2019-05-23T04:34:12.453Z,79.88
2019-05-23T04:35:12.386Z,80.19
2019-05-23T04:36:12.421Z,80.12
2019-05-23T04:37:12.378Z,80.43
2019-05-23T04:38:12.357Z,82.13
2019-05-23T04:39:12.353Z,81.31
2019-05-23T04:40:12.325Z,80.49
2019-05-23T04:41:12.325Z,80.69
2019-05-23T04:42:12.312Z,80.19
2019-05-23T04:43:12.345Z,80.19
2019-05-23T04:44:12.293Z,80.39
2019-05-23T04:45:12.268Z,80.29
2019-05-23T04:46:12.260Z,80.08
2019-05-23T04:47:12.251Z,80.69
2019-05-23T04:48:12.263Z,80.53
2019-05-23T04:49:12.238Z,80.43
2019-05-23T04:50:12.211Z,80.63
2019-05-23T04:51:12.240Z,80.94
2019-05-23T04:52:12.192Z,80.53
2019-05-23T04:53:12.191Z,81.86
2019-05-23T04:54:12.170Z,80.63
2019-05-23T04:55:12.166Z,80.43
2019-05-23T04:56:12.184Z,82.17
2019-05-23T04:57:12.142Z,80.63
2019-05-23T04:58:12.130Z,80.63
2019-05-23T04:59:12.112Z,80.74
2019-05-23T05:00:12.116Z,80.49
2019-05-23T05:01:12.104Z,80.29
2019-05-23T05:02:25.711Z,80.29
2019-05-23T05:03:17.028Z,80.39
2019-05-23T05:04:13.061Z,80.19
2019-05-23T05:05:12.067Z,80.08
2019-05-23T05:06:12.047Z,80.60
2019-05-23T05:07:12.059Z,80.39
2019-05-23T05:08:12.193Z,80.19
2019-05-23T05:09:12.006Z,80.39
2019-05-23T05:10:11.997Z,79.88
2019-05-23T05:11:11.986Z,79.68
2019-05-23T05:12:12.004Z,79.64
2019-05-23T05:13:11.966Z,79.74
2019-05-23T05:14:11.949Z,79.74
2019-05-23T05:15:11.947Z,79.13
2019-05-23T05:16:11.926Z,78.20
2019-05-23T05:17:11.923Z,78.58
2019-05-23T05:18:11.910Z,78.61
2019-05-23T05:19:11.902Z,78.72
2019-05-23T05:20:11.881Z,78.58
2019-05-23T05:21:11.883Z,78.68
2019-05-23T05:22:11.879Z,78.78
2019-05-23T05:23:11.865Z,78.61
2019-05-23T05:24:11.839Z,78.88
2019-05-23T05:25:11.834Z,77.86
2019-05-23T05:26:11.818Z,78.58
2019-05-23T05:27:11.811Z,78.38
2019-05-23T05:28:11.804Z,78.78
2019-05-23T05:29:11.777Z,78.58
2019-05-23T05:30:11.775Z,77.86
2019-05-23T05:31:11.777Z,77.97
2019-05-23T05:32:11.752Z,77.83
2019-05-23T05:33:11.738Z,77.42
2019-05-23T05:34:11.732Z,77.62
2019-05-23T05:35:11.722Z,76.70
2019-05-23T05:36:11.703Z,76.81
2019-05-23T05:37:11.691Z,77.11
2019-05-23T05:38:11.681Z,76.90
2019-05-23T05:39:11.667Z,76.46
2019-05-23T05:40:11.674Z,76.56
2019-05-23T05:41:11.660Z,76.16
2019-05-23T05:42:11.639Z,75.54
2019-05-23T05:43:11.621Z,76.36
2019-05-23T05:44:12.069Z,76.06
2019-05-23T05:45:11.720Z,75.44
2019-05-23T05:46:11.599Z,75.34
2019-05-23T05:47:11.592Z,75.54
2019-05-23T05:48:11.565Z,75.65
2019-05-23T05:49:11.554Z,76.36
2019-05-23T05:50:11.566Z,75.85
2019-05-23T05:51:11.548Z,75.41
2019-05-23T05:52:11.529Z,75.24
2019-05-23T05:53:11.512Z,75.24
2019-05-23T05:54:11.511Z,75.31
2019-05-23T05:55:11.490Z,74.90
2019-05-23T05:56:11.484Z,75.31
2019-05-23T05:57:11.473Z,74.49
2019-05-23T05:58:11.458Z,74.90
2019-05-23T05:59:11.472Z,74.79
2019-05-23T06:00:13.112Z,74.69
2019-05-23T06:01:11.428Z,75.07
2019-05-23T06:02:11.415Z,74.29
2019-05-23T06:03:11.521Z,74.29
2019-05-23T06:04:11.490Z,74.15
2019-05-23T06:05:11.373Z,73.27
2019-05-23T06:06:11.379Z,73.74
2019-05-23T06:07:11.349Z,73.88
2019-05-23T06:08:11.367Z,73.54
2019-05-23T06:09:11.342Z,74.15
2019-05-23T06:10:11.319Z,73.74
2019-05-23T06:11:11.319Z,73.64
2019-05-23T06:12:11.294Z,73.84
2019-05-23T06:13:11.296Z,74.15
2019-05-23T06:14:11.281Z,74.25
2019-05-23T06:15:11.271Z,73.84
2019-05-23T06:16:11.251Z,74.11
2019-05-23T06:17:11.249Z,73.81
2019-05-23T06:18:11.237Z,73.03
2019-05-23T06:19:11.225Z,73.91
2019-05-23T06:20:11.214Z,74.01
2019-05-23T06:21:11.330Z,72.89
2019-05-23T06:22:11.242Z,73.30
2019-05-23T06:23:11.187Z,72.99
2019-05-23T06:24:11.185Z,72.55
2019-05-23T06:25:11.770Z,72.96
2019-05-23T06:26:11.159Z,73.06
2019-05-23T06:27:11.125Z,72.24
2019-05-23T06:28:11.121Z,71.73
2019-05-23T06:29:11.111Z,72.14
2019-05-23T06:30:11.097Z,71.80
2019-05-23T06:31:11.102Z,72.62
2019-05-23T06:32:11.074Z,72.31
2019-05-23T06:33:22.769Z,72.52
2019-05-23T06:34:12.083Z,71.73
2019-05-23T06:35:11.193Z,72.62
2019-05-23T06:36:11.030Z,72.31
2019-05-23T06:37:11.026Z,72.72
2019-05-23T06:38:11.001Z,72.89
2019-05-23T06:39:11.007Z,71.06
2019-05-23T06:40:10.996Z,71.97
2019-05-23T06:41:10.978Z,71.36
2019-05-23T06:42:10.969Z,71.26
2019-05-23T06:43:10.955Z,70.65
2019-05-23T06:44:10.945Z,70.95
2019-05-23T06:45:11.034Z,71.26
2019-05-23T06:46:10.923Z,71.26
2019-05-23T06:47:10.909Z,70.86
2019-05-23T06:48:10.902Z,70.14
2019-05-23T06:49:10.883Z,70.86
2019-05-23T06:50:10.864Z,70.75
2019-05-23T06:51:10.862Z,70.55
2019-05-23T06:52:10.908Z,69.80
2019-05-23T06:53:10.881Z,69.63
2019-05-23T06:54:10.833Z,70.10
2019-05-23T06:55:10.819Z,70.01
2019-05-23T06:56:10.815Z,69.80
2019-05-23T06:57:10.790Z,69.90
2019-05-23T06:58:10.808Z,69.57
2019-05-23T06:59:10.771Z,68.96
2019-05-23T07:00:10.774Z,68.85
2019-05-23T07:01:10.751Z,69.57
2019-05-23T07:02:10.745Z,67.94
2019-05-23T07:03:10.810Z,68.04
2019-05-23T07:04:10.713Z,68.65
2019-05-23T07:05:10.739Z,68.55
2019-05-23T07:06:10.735Z,68.24
2019-05-23T07:07:10.684Z,69.26
2019-05-23T07:08:10.671Z,69.16
2019-05-23T07:09:10.656Z,68.72
2019-05-23T07:10:10.663Z,68.21
2019-05-23T07:11:10.644Z,67.94
2019-05-23T07:12:10.685Z,67.63
2019-05-23T07:13:10.621Z,68.52
2019-05-23T07:14:10.599Z,67.60
2019-05-23T07:15:10.590Z,68.01
2019-05-23T07:16:10.581Z,68.28
2019-05-23T07:17:10.582Z,66.15
2019-05-23T07:18:10.593Z,67.77
2019-05-23T07:19:10.546Z,66.35
2019-05-23T07:20:10.537Z,65.74
2019-05-23T07:21:10.531Z,65.94
2019-05-23T07:22:10.553Z,66.05
2019-05-23T07:23:10.502Z,66.02
2019-05-23T07:24:10.496Z,65.71
2019-05-23T07:25:10.476Z,66.52
2019-05-23T07:26:10.471Z,65.30
2019-05-23T07:27:10.451Z,65.30
2019-05-23T07:28:10.454Z,65.41
2019-05-23T07:29:10.437Z,65.10
2019-05-23T07:30:10.412Z,65.23
2019-05-23T07:31:10.439Z,65.10
2019-05-23T07:32:10.399Z,64.79
2019-05-23T07:33:10.388Z,65.30
2019-05-23T07:34:10.374Z,64.26
2019-05-23T07:35:10.364Z,64.09
2019-05-23T07:36:10.354Z,63.37
2019-05-23T07:37:10.340Z,64.18
2019-05-23T07:38:10.344Z,65.30
2019-05-23T07:39:11.713Z,64.79
2019-05-23T07:40:10.306Z,65.20
2019-05-23T07:41:10.300Z,65.71
2019-05-23T07:42:10.285Z,65.27
2019-05-23T07:43:10.350Z,63.34
2019-05-23T07:44:10.308Z,63.34
2019-05-23T07:45:10.257Z,64.67
2019-05-23T07:46:10.239Z,63.34
2019-05-23T07:47:10.223Z,63.62
2019-05-23T07:48:10.225Z,62.91
2019-05-23T07:49:10.226Z,61.99
2019-05-23T07:50:10.256Z,62.43
2019-05-23T07:51:10.194Z,62.51
2019-05-23T07:52:10.172Z,62.10
2019-05-23T07:53:10.159Z,62.60
2019-05-23T07:54:10.161Z,62.13
2019-05-23T07:55:10.168Z,61.18
2019-05-23T07:56:10.134Z,61.29
2019-05-23T07:57:10.111Z,62.13
2019-05-23T07:58:13.448Z,62.43
2019-05-23T07:59:10.097Z,63.34
2019-05-23T08:00:10.084Z,62.84
2019-05-23T08:01:10.073Z,61.93
2019-05-23T08:02:10.058Z,60.50
2019-05-23T08:03:10.054Z,58.78
2019-05-23T08:04:21.188Z,59.26
2019-05-23T08:05:11.041Z,59.16
2019-05-23T08:06:10.028Z,58.92
2019-05-23T08:07:10.009Z,58.22
2019-05-23T08:08:10.172Z,57.07
2019-05-23T08:09:09.985Z,57.04
2019-05-23T08:10:10.041Z,55.73
2019-05-23T08:11:09.977Z,55.83
2019-05-23T08:12:09.961Z,56.95
2019-05-23T08:13:09.941Z,56.84
2019-05-23T08:14:12.094Z,57.35
2019-05-23T08:15:09.956Z,57.75
2019-05-23T08:16:09.904Z,56.95
2019-05-23T08:17:09.904Z,57.04
2019-05-23T08:18:09.896Z,57.55
2019-05-23T08:19:09.893Z,57.65
2019-05-23T08:20:09.862Z,57.65
2019-05-23T08:21:09.845Z,57.62
2019-05-23T08:22:09.844Z,57.75
2019-05-23T08:23:09.834Z,57.86
2019-05-23T08:24:09.818Z,58.47
2019-05-23T08:25:09.809Z,57.75
2019-05-23T08:26:09.791Z,57.75
2019-05-23T08:27:09.784Z,57.35
2019-05-23T08:28:09.782Z,57.32
2019-05-23T08:29:25.429Z,56.84
2019-05-23T08:30:10.799Z,55.80
2019-05-23T08:31:09.744Z,56.03
2019-05-23T08:32:09.726Z,56.54
2019-05-23T08:33:09.731Z,57.04
2019-05-23T08:34:09.709Z,57.04
2019-05-23T08:35:09.710Z,57.35
2019-05-23T08:36:09.698Z,56.95
2019-05-23T08:37:09.668Z,57.35
2019-05-23T08:38:09.663Z,57.55
2019-05-23T08:39:09.673Z,57.42
2019-05-23T08:40:09.635Z,57.42
2019-05-23T08:41:09.688Z,57.62
2019-05-23T08:42:09.636Z,57.93
2019-05-23T08:43:09.612Z,56.71
2019-05-23T08:44:11.594Z,56.82
2019-05-23T08:45:09.588Z,55.47
2019-05-23T08:46:09.584Z,55.68
2019-05-23T08:47:09.574Z,55.68
2019-05-23T08:48:09.560Z,55.77
2019-05-23T08:49:09.545Z,56.38
2019-05-23T08:50:09.535Z,55.57
2019-05-23T08:51:09.531Z,55.68
2019-05-23T08:52:09.512Z,56.26
2019-05-23T08:53:09.546Z,55.75
2019-05-23T08:54:09.523Z,55.95
2019-05-23T08:55:09.489Z,55.75
2019-05-23T08:56:18.377Z,54.84
2019-05-23T08:57:10.462Z,55.65
2019-05-23T08:58:09.466Z,55.73
2019-05-23T08:59:09.442Z,54.82
2019-05-23T09:00:09.416Z,54.21
2019-05-23T09:01:09.436Z,54.71
2019-05-23T09:02:09.401Z,53.80
2019-05-23T09:03:09.413Z,53.30
2019-05-23T09:04:09.379Z,53.17
2019-05-23T09:05:09.363Z,53.67
2019-05-23T09:06:09.354Z,52.97
2019-05-23T09:07:09.379Z,52.87
2019-05-23T09:08:09.349Z,52.84
2019-05-23T09:09:27.782Z,52.16
2019-05-23T09:10:10.294Z,52.26
2019-05-23T09:11:09.298Z,51.96
2019-05-23T09:12:09.278Z,53.27
2019-05-23T09:13:09.280Z,50.84
2019-05-23T09:14:09.255Z,51.32
2019-05-23T09:15:10.329Z,52.84
2019-05-23T09:16:09.262Z,50.82
2019-05-23T09:17:09.216Z,51.05
2019-05-23T09:18:09.208Z,50.42
2019-05-23T09:19:09.203Z,51.23
2019-05-23T09:20:09.228Z,51.32
2019-05-23T09:21:09.190Z,52.14
2019-05-23T09:22:09.161Z,50.42
2019-05-23T09:23:09.155Z,50.09
2019-05-23T09:24:09.143Z,48.68
2019-05-23T09:25:09.130Z,47.67
2019-05-23T09:26:09.117Z,47.87
2019-05-23T09:27:09.140Z,47.56
2019-05-23T09:28:09.099Z,48.30
2019-05-23T09:29:09.085Z,49.79
2019-05-23T09:30:09.078Z,49.08
2019-05-23T09:31:09.065Z,47.67
2019-05-23T09:32:09.059Z,47.74
2019-05-23T09:33:09.079Z,48.15
2019-05-23T09:34:09.027Z,46.92
2019-05-23T09:35:20.137Z,46.71
2019-05-23T09:36:10.007Z,47.52
2019-05-23T09:37:09.003Z,46.49
2019-05-23T09:38:08.986Z,47.62
2019-05-23T09:39:08.975Z,47.52
2019-05-23T09:40:08.961Z,48.13
2019-05-23T09:41:08.963Z,48.35
2019-05-23T09:42:12.025Z,48.55
2019-05-23T09:43:08.933Z,49.76
2019-05-23T09:44:08.926Z,49.56
2019-05-23T09:45:08.910Z,48.55
2019-05-23T09:46:08.893Z,47.95
2019-05-23T09:47:08.906Z,48.55
2019-05-23T09:48:08.947Z,48.75
2019-05-23T09:49:11.234Z,48.85
2019-05-23T09:50:08.848Z,47.74
2019-05-23T09:51:08.834Z,48.33
2019-05-23T09:52:09.628Z,47.74
2019-05-23T09:53:08.813Z,48.65
2019-05-23T09:54:08.805Z,48.43
2019-05-23T09:55:08.792Z,47.72
2019-05-23T09:56:08.799Z,47.72
2019-05-23T09:57:08.882Z,47.02
2019-05-23T09:58:08.840Z,46.73
2019-05-23T09:59:08.747Z,47.85
2019-05-23T10:00:08.802Z,46.84
2019-05-23T10:01:08.793Z,46.61
2019-05-23T10:02:08.730Z,47.52
2019-05-23T10:03:08.723Z,46.61
2019-05-23T10:04:08.689Z,46.71
2019-05-23T10:05:08.691Z,45.70
2019-05-23T10:06:08.665Z,46.31
2019-05-23T10:07:08.654Z,46.51
2019-05-23T10:08:08.645Z,46.61
2019-05-23T10:09:08.642Z,47.72
2019-05-23T10:10:08.616Z,46.92
2019-05-23T10:11:08.613Z,46.29
2019-05-23T10:12:08.618Z,46.21
2019-05-23T10:13:08.586Z,46.51
2019-05-23T10:14:08.587Z,46.29
2019-05-23T10:15:08.560Z,46.19
2019-05-23T10:16:08.666Z,46.89
2019-05-23T10:17:08.542Z,45.28
2019-05-23T10:18:08.663Z,46.19
2019-05-23T10:19:08.515Z,45.98
2019-05-23T10:20:08.509Z,47.07
2019-05-23T10:21:08.498Z,46.87
2019-05-23T10:22:08.509Z,45.16
2019-05-23T10:23:08.485Z,44.75
2019-05-23T10:24:08.490Z,45.66
2019-05-23T10:25:08.450Z,46.37
2019-05-23T10:26:08.453Z,45.74
2019-05-23T10:27:08.427Z,44.73
2019-05-23T10:28:08.419Z,43.80
2019-05-23T10:29:08.407Z,43.88
2019-05-23T10:30:08.397Z,42.46
2019-05-23T10:31:08.377Z,42.76
2019-05-23T10:32:08.393Z,42.76
2019-05-23T10:33:11.931Z,41.85
2019-05-23T10:34:08.355Z,41.55
2019-05-23T10:35:08.354Z,41.27
2019-05-23T10:36:08.328Z,40.26
2019-05-23T10:37:08.329Z,40.16
2019-05-23T10:38:08.342Z,40.06
2019-05-23T10:39:08.295Z,41.47
2019-05-23T10:40:08.277Z,40.06
2019-05-23T10:41:08.288Z,39.76
2019-05-23T10:42:08.256Z,40.55
2019-05-23T10:43:08.250Z,40.44
2019-05-23T10:44:08.254Z,41.55
2019-05-23T10:45:08.221Z,41.85
2019-05-23T10:46:08.222Z,42.55
2019-05-23T10:47:08.205Z,42.35
2019-05-23T10:48:08.195Z,42.46
2019-05-23T10:49:08.175Z,42.13
2019-05-23T10:50:09.976Z,43.84
2019-05-23T10:51:08.169Z,42.52
2019-05-23T10:52:08.150Z,41.99
2019-05-23T10:53:08.138Z,41.65
2019-05-23T10:54:08.125Z,41.60
2019-05-23T10:55:08.235Z,39.33
2019-05-23T10:56:08.099Z,37.49
2019-05-23T10:57:08.092Z,37.90
2019-05-23T10:58:08.077Z,36.56
2019-05-23T10:59:08.194Z,36.24
2019-05-23T11:00:08.058Z,36.13
2019-05-23T11:01:08.046Z,34.81
2019-05-23T11:02:08.036Z,35.29
2019-05-23T11:03:08.022Z,34.28
2019-05-23T11:04:08.006Z,33.78
2019-05-23T11:05:12.914Z,34.09
2019-05-23T11:06:16.073Z,34.51
2019-05-23T11:07:08.994Z,35.23
2019-05-23T11:08:07.975Z,35.14
2019-05-23T11:09:07.963Z,35.03
2019-05-23T11:10:07.947Z,35.24
2019-05-23T11:11:07.935Z,34.84
2019-05-23T11:12:08.520Z,33.54
2019-05-23T11:13:07.925Z,33.35
2019-05-23T11:14:08.871Z,32.86
2019-05-23T11:15:07.891Z,33.06
2019-05-23T11:16:07.878Z,34.05
2019-05-23T11:17:07.871Z,33.63
2019-05-23T11:18:07.861Z,33.72
2019-05-23T11:19:07.893Z,33.01
2019-05-23T11:20:07.838Z,32.00
2019-05-23T11:21:07.819Z,32.02
2019-05-23T11:22:07.813Z,31.72
2019-05-23T11:23:07.820Z,33.31
2019-05-23T11:24:07.787Z,34.11
2019-05-23T11:25:07.811Z,33.40
2019-05-23T11:26:07.780Z,33.31
2019-05-23T11:27:07.759Z,33.43
2019-05-23T11:28:07.886Z,33.61
2019-05-23T11:29:07.740Z,33.42
2019-05-23T11:30:07.725Z,33.61
2019-05-23T11:31:07.740Z,32.90
2019-05-23T11:32:07.709Z,33.22
2019-05-23T11:33:07.703Z,33.91
2019-05-23T11:34:07.691Z,33.72
2019-05-23T11:35:07.663Z,33.22
2019-05-23T11:36:07.656Z,33.80
2019-05-23T11:37:07.640Z,33.88
2019-05-23T11:38:07.650Z,33.08
2019-05-23T11:39:07.620Z,32.29
2019-05-23T11:40:07.606Z,32.59
2019-05-23T11:41:07.604Z,33.38
2019-05-23T11:42:07.621Z,33.48
2019-05-23T11:43:07.636Z,31.76
2019-05-23T11:44:07.571Z,32.45
2019-05-23T11:45:07.553Z,31.96
2019-05-23T11:46:07.550Z,32.86
2019-05-23T11:47:07.547Z,32.86
2019-05-23T11:48:07.520Z,32.54
2019-05-23T11:49:07.521Z,33.04
2019-05-23T11:50:07.545Z,32.93
2019-05-23T11:51:07.497Z,33.05
2019-05-23T11:52:07.495Z,33.37
2019-05-23T11:53:07.470Z,33.67
2019-05-23T11:54:09.596Z,33.26
2019-05-23T11:55:07.448Z,33.37
2019-05-23T11:56:07.449Z,33.48
2019-05-23T11:57:07.440Z,33.38
2019-05-23T11:58:07.415Z,34.01
2019-05-23T11:59:07.441Z,35.94
2019-05-23T12:00:07.399Z,36.36
2019-05-23T12:01:07.439Z,36.46
2019-05-23T12:02:07.375Z,36.36
2019-05-23T12:03:07.358Z,36.36
2019-05-23T12:04:07.406Z,37.08
2019-05-23T12:05:07.356Z,36.60
2019-05-23T12:06:07.340Z,37.40
2019-05-23T12:07:07.321Z,38.31
2019-05-23T12:08:07.306Z,38.63
2019-05-23T12:09:07.308Z,38.95
2019-05-23T12:10:07.339Z,39.37
2019-05-23T12:11:07.272Z,39.29
2019-05-23T12:12:07.261Z,39.31
2019-05-23T12:13:07.246Z,39.51
2019-05-23T12:14:07.238Z,41.43
2019-05-23T12:15:07.225Z,41.74
2019-05-23T12:16:07.233Z,41.43
2019-05-23T12:17:07.212Z,41.53
2019-05-23T12:18:07.197Z,41.65
2019-05-23T12:19:07.178Z,41.45
2019-05-23T12:20:07.196Z,40.25
2019-05-23T12:21:07.174Z,41.55
2019-05-23T12:22:07.155Z,41.65
2019-05-23T12:23:10.769Z,41.35
2019-05-23T12:24:07.134Z,41.85
2019-05-23T12:25:21.412Z,42.25
2019-05-23T12:26:08.127Z,41.97
2019-05-23T12:27:07.105Z,41.67
2019-05-23T12:28:07.081Z,42.07
2019-05-23T12:29:07.083Z,42.58
2019-05-23T12:30:07.086Z,42.47
2019-05-23T12:31:07.060Z,42.27
2019-05-23T12:32:07.050Z,42.18
2019-05-23T12:33:07.035Z,42.18
2019-05-23T12:34:07.026Z,41.77
2019-05-23T12:35:11.245Z,41.67
2019-05-23T12:36:07.003Z,42.19
2019-05-23T12:37:18.385Z,41.87
2019-05-23T12:38:08.034Z,42.47
2019-05-23T12:39:06.965Z,41.89
2019-05-23T12:40:06.960Z,42.80
2019-05-23T12:41:06.949Z,41.89
2019-05-23T12:42:06.938Z,42.30
2019-05-23T12:43:06.956Z,42.10
2019-05-23T12:44:06.919Z,41.69
2019-05-23T12:45:06.909Z,41.79
2019-05-23T12:46:06.903Z,42.10
2019-05-23T12:47:06.885Z,42.19
2019-05-23T12:48:06.888Z,42.60
2019-05-23T12:49:06.860Z,42.40
2019-05-23T12:50:06.873Z,42.19
2019-05-23T12:51:06.839Z,42.40
2019-05-23T12:52:06.873Z,42.49
2019-05-23T12:53:06.810Z,42.30